createdAt,value
2017-10-15T00:00:06.808Z,11.30
2017-10-15T00:02:35.140Z,11.20
2017-10-15T00:05:02.699Z,11.20
2017-10-15T00:07:30.289Z,11.20
2017-10-15T00:09:57.873Z,11.20
2017-10-15T00:12:26.209Z,11.20
2017-10-15T00:14:53.784Z,11.10
2017-10-15T00:17:21.394Z,11.10
2017-10-15T00:19:48.946Z,11.10
2017-10-15T00:22:16.521Z,11.10
2017-10-15T00:24:44.083Z,11.00
2017-10-15T00:27:11.656Z,11.00
2017-10-15T00:29:39.194Z,10.90
2017-10-15T00:32:06.769Z,11.00
2017-10-15T00:34:34.329Z,10.90
2017-10-15T00:37:01.882Z,10.90
2017-10-15T00:39:29.452Z,10.80
2017-10-15T00:41:56.985Z,10.80
2017-10-15T00:44:24.562Z,10.80
2017-10-15T00:46:52.180Z,10.80
2017-10-15T00:49:20.506Z,10.60
2017-10-15T00:51:48.077Z,10.60
2017-10-15T00:54:15.654Z,10.60
2017-10-15T00:56:43.260Z,10.60
2017-10-15T00:59:10.835Z,10.60
2017-10-15T01:01:38.382Z,10.60
2017-10-15T01:04:05.953Z,10.60
2017-10-15T01:06:33.515Z,10.60
2017-10-15T01:09:01.089Z,10.60
2017-10-15T01:11:28.640Z,10.50
2017-10-15T01:13:56.235Z,10.50
2017-10-15T01:16:23.788Z,10.50
2017-10-15T01:18:51.353Z,10.40
2017-10-15T01:21:18.924Z,10.40
2017-10-15T01:23:46.513Z,10.40
2017-10-15T01:26:14.870Z,10.40
2017-10-15T01:28:42.449Z,10.30
2017-10-15T01:31:10.798Z,10.30
2017-10-15T01:33:38.370Z,10.30
2017-10-15T01:36:05.939Z,10.30
2017-10-15T01:38:34.297Z,10.30
2017-10-15T01:41:01.867Z,10.30
2017-10-15T01:43:29.434Z,10.30
2017-10-15T01:45:57.773Z,10.20
2017-10-15T01:48:25.337Z,10.20
2017-10-15T01:50:52.905Z,10.20
2017-10-15T01:53:20.504Z,10.20
2017-10-15T01:55:48.856Z,10.20
2017-10-15T01:58:16.443Z,10.10
2017-10-15T02:00:44.801Z,10.20
2017-10-15T02:03:12.404Z,10.10
2017-10-15T02:05:40.014Z,10.10
2017-10-15T02:08:07.579Z,10.10
2017-10-15T02:10:35.159Z,10.10
2017-10-15T02:13:03.506Z,10.10
2017-10-15T02:15:31.088Z,10.00
2017-10-15T02:17:58.700Z,10.10
2017-10-15T02:20:26.281Z,10.00
2017-10-15T02:22:53.836Z,10.00
2017-10-15T02:25:21.398Z,10.00
2017-10-15T02:27:48.946Z,9.90
2017-10-15T02:30:16.502Z,9.80
2017-10-15T02:32:44.073Z,9.70
2017-10-15T02:35:11.631Z,9.70
2017-10-15T02:37:39.194Z,9.70
2017-10-15T02:40:06.776Z,9.70
2017-10-15T02:42:34.366Z,9.70
2017-10-15T02:45:02.685Z,9.70
2017-10-15T02:47:30.263Z,9.70
2017-10-15T02:49:57.828Z,9.70
2017-10-15T02:52:25.374Z,9.70
2017-10-15T02:54:52.941Z,9.70
2017-10-15T02:57:20.493Z,9.70
2017-10-15T02:59:48.054Z,9.60
2017-10-15T03:02:15.593Z,9.60
2017-10-15T03:04:43.152Z,9.60
2017-10-15T03:07:10.713Z,9.60
2017-10-15T03:09:38.257Z,9.60
2017-10-15T03:12:05.802Z,9.60
2017-10-15T03:14:34.117Z,9.60
2017-10-15T03:17:01.697Z,9.50
2017-10-15T03:19:29.261Z,9.50
2017-10-15T03:21:56.841Z,9.50
2017-10-15T03:24:24.394Z,9.50
2017-10-15T03:26:51.950Z,9.50
2017-10-15T03:29:19.521Z,9.50
2017-10-15T03:31:47.084Z,9.40
2017-10-15T03:34:15.417Z,9.30
2017-10-15T03:36:42.971Z,9.30
2017-10-15T03:39:10.525Z,9.30
2017-10-15T03:41:38.066Z,9.30
2017-10-15T03:44:05.652Z,9.30
2017-10-15T03:46:33.207Z,9.30
2017-10-15T03:49:00.782Z,9.30
2017-10-15T03:51:28.346Z,9.30
2017-10-15T03:53:55.917Z,9.40
2017-10-15T03:56:23.478Z,9.40
2017-10-15T03:58:51.038Z,9.40
2017-10-15T04:01:18.610Z,9.40
2017-10-15T04:03:46.180Z,9.40
2017-10-15T04:06:14.525Z,9.30
2017-10-15T04:08:42.112Z,9.30
2017-10-15T04:11:09.684Z,9.40
2017-10-15T04:13:38.001Z,9.30
2017-10-15T04:16:05.548Z,9.30
2017-10-15T04:18:33.103Z,9.30
2017-10-15T04:21:00.683Z,9.30
2017-10-15T04:23:28.310Z,9.30
2017-10-15T04:25:56.621Z,9.20
2017-10-15T04:28:24.195Z,9.20
2017-10-15T04:30:51.734Z,9.20
2017-10-15T04:33:19.272Z,9.20
2017-10-15T04:35:46.847Z,9.20
2017-10-15T04:38:14.394Z,9.20
2017-10-15T04:40:42.732Z,9.20
2017-10-15T04:43:10.285Z,9.20
2017-10-15T04:45:37.866Z,9.20
2017-10-15T04:48:05.416Z,9.20
2017-10-15T04:50:32.998Z,9.20
2017-10-15T04:53:01.324Z,9.10
2017-10-15T04:55:28.890Z,9.10
2017-10-15T04:57:56.476Z,9.10
2017-10-15T05:00:24.030Z,9.00
2017-10-15T05:02:51.577Z,9.00
2017-10-15T05:05:19.116Z,9.00
2017-10-15T05:07:46.700Z,9.00
2017-10-15T05:10:14.258Z,8.90
2017-10-15T05:12:41.843Z,8.90
2017-10-15T05:15:09.398Z,8.90
2017-10-15T05:17:36.953Z,8.90
2017-10-15T05:20:04.549Z,8.90
2017-10-15T05:22:34.242Z,8.90
2017-10-15T05:25:02.573Z,8.90
2017-10-15T05:27:30.133Z,8.90
2017-10-15T05:29:58.401Z,9.00
2017-10-15T05:32:26.008Z,9.00
2017-10-15T05:34:53.561Z,9.10
2017-10-15T05:37:21.136Z,9.10
2017-10-15T05:39:49.469Z,9.10
2017-10-15T05:42:17.025Z,9.10
2017-10-15T05:44:44.615Z,9.20
2017-10-15T05:47:12.170Z,9.20
2017-10-15T05:49:39.762Z,9.20
2017-10-15T05:52:08.118Z,9.20
2017-10-15T05:54:35.729Z,9.20
2017-10-15T05:57:03.294Z,9.20
2017-10-15T05:59:30.865Z,9.30
2017-10-15T06:01:58.429Z,9.30
2017-10-15T06:04:25.994Z,9.40
2017-10-15T06:06:53.566Z,9.40
2017-10-15T06:09:21.153Z,9.50
2017-10-15T06:11:49.492Z,9.60
2017-10-15T06:14:17.061Z,9.60
2017-10-15T06:16:44.613Z,9.70
2017-10-15T06:19:12.185Z,9.70
2017-10-15T06:21:39.732Z,9.70
2017-10-15T06:24:07.289Z,9.80
2017-10-15T06:26:34.843Z,9.80
2017-10-15T06:29:02.401Z,9.90
2017-10-15T06:31:30.017Z,9.90
2017-10-15T06:33:58.333Z,10.10
2017-10-15T06:36:25.910Z,10.10
2017-10-15T06:38:53.501Z,10.10
2017-10-15T06:41:21.868Z,10.20
2017-10-15T06:43:49.427Z,10.20
2017-10-15T06:46:16.991Z,10.30
2017-10-15T06:48:44.565Z,10.40
2017-10-15T06:51:12.905Z,10.50
2017-10-15T06:53:40.470Z,10.50
2017-10-15T06:56:08.041Z,10.60
2017-10-15T06:58:35.631Z,10.60
2017-10-15T07:01:03.983Z,10.80
2017-10-15T07:03:31.568Z,10.80
2017-10-15T07:05:59.893Z,10.90
2017-10-15T07:08:27.562Z,10.90
2017-10-15T07:10:55.117Z,10.90
2017-10-15T07:13:22.687Z,11.00
2017-10-15T07:15:50.237Z,11.20
2017-10-15T07:18:17.813Z,11.30
2017-10-15T07:20:45.376Z,11.40
2017-10-15T07:23:12.946Z,11.50
2017-10-15T07:25:40.527Z,11.50
2017-10-15T07:28:08.862Z,11.60
2017-10-15T07:30:36.429Z,11.60
2017-10-15T07:33:03.994Z,11.60
2017-10-15T07:35:31.577Z,11.70
2017-10-15T07:37:59.150Z,11.80
2017-10-15T07:40:27.552Z,12.00
2017-10-15T07:42:55.113Z,11.90
2017-10-15T07:45:22.685Z,12.10
2017-10-15T07:47:50.266Z,12.10
2017-10-15T07:50:17.848Z,12.20
2017-10-15T07:52:45.430Z,12.50
2017-10-15T07:55:13.804Z,13.30
2017-10-15T07:57:42.162Z,13.30
2017-10-15T08:00:09.809Z,13.20
2017-10-15T08:02:37.381Z,13.30
2017-10-15T08:05:04.950Z,13.30
2017-10-15T08:07:32.531Z,13.20
2017-10-15T08:10:00.874Z,13.00
2017-10-15T08:12:28.471Z,13.00
2017-10-15T08:14:56.809Z,13.30
2017-10-15T08:17:24.367Z,13.30
2017-10-15T08:19:51.967Z,13.30
2017-10-15T08:22:20.323Z,13.30
2017-10-15T08:24:47.872Z,13.30
2017-10-15T08:27:15.469Z,13.30
2017-10-15T08:29:43.789Z,13.50
2017-10-15T08:32:11.409Z,13.50
2017-10-15T08:34:39.747Z,13.80
2017-10-15T08:37:07.341Z,13.80
2017-10-15T08:39:35.680Z,13.80
2017-10-15T08:42:03.256Z,13.80
2017-10-15T08:44:30.817Z,13.60
2017-10-15T08:46:58.403Z,13.70
2017-10-15T08:49:26.754Z,13.60
2017-10-15T08:51:54.320Z,13.60
2017-10-15T08:54:21.872Z,13.80
2017-10-15T08:56:49.454Z,14.00
2017-10-15T08:59:17.047Z,14.30
2017-10-15T09:01:44.614Z,14.60
2017-10-15T09:04:12.189Z,14.40
2017-10-15T09:06:39.784Z,14.70
2017-10-15T09:09:07.453Z,14.80
2017-10-15T09:11:35.052Z,15.10
2017-10-15T09:14:02.611Z,15.00
2017-10-15T09:16:30.197Z,15.20
2017-10-15T09:18:57.760Z,15.40
2017-10-15T09:21:25.322Z,15.30
2017-10-15T09:23:52.910Z,15.10
2017-10-15T09:26:20.466Z,15.00
2017-10-15T09:28:48.035Z,15.00
2017-10-15T09:31:16.397Z,15.10
2017-10-15T09:33:43.959Z,15.10
2017-10-15T09:36:12.064Z,15.40
2017-10-15T09:38:40.377Z,15.60
2017-10-15T09:41:08.002Z,15.60
2017-10-15T09:43:36.334Z,15.80
2017-10-15T09:46:03.901Z,15.80
2017-10-15T09:48:31.467Z,15.50
2017-10-15T09:50:59.021Z,15.00
2017-10-15T09:53:26.626Z,15.40
2017-10-15T09:55:54.986Z,15.50
2017-10-15T09:58:23.701Z,15.40
2017-10-15T10:00:51.273Z,15.40
2017-10-15T10:03:18.894Z,15.60
2017-10-15T10:05:46.627Z,15.70
2017-10-15T10:08:15.140Z,15.50
2017-10-15T10:10:42.847Z,15.50
2017-10-15T10:13:10.422Z,15.50
2017-10-15T10:15:38.008Z,15.80
2017-10-15T10:18:05.585Z,16.00
2017-10-15T10:20:33.166Z,15.90
2017-10-15T10:23:01.498Z,16.40
2017-10-15T10:25:29.057Z,16.30
2017-10-15T10:27:56.635Z,16.50
2017-10-15T10:30:24.184Z,16.80
2017-10-15T10:32:51.763Z,17.30
2017-10-15T10:35:19.338Z,17.60
2017-10-15T10:37:47.663Z,18.30
2017-10-15T10:40:15.213Z,18.20
2017-10-15T10:42:42.833Z,18.30
2017-10-15T10:45:10.406Z,18.50
2017-10-15T10:47:38.750Z,18.90
2017-10-15T10:50:06.322Z,18.90
2017-10-15T10:52:33.972Z,19.00
2017-10-15T10:55:01.577Z,19.40
2017-10-15T10:57:29.920Z,19.90
2017-10-15T10:59:57.508Z,19.80
2017-10-15T11:02:25.841Z,20.50
2017-10-15T11:04:53.403Z,20.40
2017-10-15T11:07:20.953Z,20.20
2017-10-15T11:09:48.532Z,20.60
2017-10-15T11:12:16.129Z,21.20
2017-10-15T11:14:44.451Z,21.90
2017-10-15T11:17:11.999Z,21.80
2017-10-15T11:19:39.584Z,21.70
2017-10-15T11:22:07.146Z,22.20
2017-10-15T11:24:34.759Z,22.10
2017-10-15T11:27:02.346Z,22.80
2017-10-15T11:29:29.898Z,23.10
2017-10-15T11:31:57.469Z,23.10
2017-10-15T11:34:25.023Z,24.00
2017-10-15T11:36:52.582Z,24.40
2017-10-15T11:39:20.146Z,24.50
2017-10-15T11:41:47.766Z,24.70
2017-10-15T11:44:16.108Z,23.80
2017-10-15T11:46:43.671Z,23.80
2017-10-15T11:49:11.247Z,24.10
2017-10-15T11:51:38.781Z,23.80
2017-10-15T11:54:06.353Z,24.10
2017-10-15T11:56:33.909Z,24.50
2017-10-15T11:59:01.525Z,24.80
2017-10-15T12:01:29.090Z,24.60
2017-10-15T12:03:56.689Z,25.10
2017-10-15T12:06:24.248Z,25.10
2017-10-15T12:08:51.831Z,25.40
2017-10-15T12:11:19.421Z,25.70
2017-10-15T12:13:46.994Z,25.70
2017-10-15T12:16:14.588Z,25.50
2017-10-15T12:18:42.181Z,25.80
2017-10-15T12:21:10.536Z,26.40
2017-10-15T12:23:38.117Z,26.30
2017-10-15T12:26:05.736Z,26.20
2017-10-15T12:28:33.320Z,26.20
2017-10-15T12:31:00.887Z,26.50
2017-10-15T12:33:28.428Z,27.00
2017-10-15T12:35:55.992Z,27.60
2017-10-15T12:38:23.564Z,28.00
2017-10-15T12:40:51.135Z,28.00
2017-10-15T12:43:18.851Z,27.20
2017-10-15T12:45:46.423Z,26.80
2017-10-15T12:48:13.989Z,27.00
2017-10-15T12:50:41.542Z,27.20
2017-10-15T12:53:09.433Z,27.30
2017-10-15T12:55:37.157Z,27.40
2017-10-15T12:58:05.553Z,27.20
2017-10-15T13:00:33.873Z,27.10
2017-10-15T13:03:02.211Z,27.00
2017-10-15T13:05:29.772Z,26.90
2017-10-15T13:07:57.350Z,26.30
2017-10-15T13:10:24.925Z,26.20
2017-10-15T13:12:52.489Z,26.80
2017-10-15T13:15:20.085Z,27.70
2017-10-15T13:17:47.635Z,27.70
2017-10-15T13:20:16.006Z,28.30
2017-10-15T13:22:44.338Z,28.50
2017-10-15T13:25:11.908Z,28.50
2017-10-15T13:27:39.502Z,29.00
2017-10-15T13:30:07.809Z,29.20
2017-10-15T13:32:35.370Z,29.20
2017-10-15T13:35:02.925Z,29.60
2017-10-15T13:37:30.493Z,29.20
2017-10-15T13:39:58.176Z,29.00
2017-10-15T13:42:25.779Z,29.10
2017-10-15T13:44:54.172Z,28.90
2017-10-15T13:47:22.493Z,29.30
2017-10-15T13:49:50.065Z,29.20
2017-10-15T13:52:17.645Z,29.50
2017-10-15T13:54:45.219Z,29.30
2017-10-15T13:57:13.570Z,28.60
2017-10-15T13:59:41.157Z,28.60
2017-10-15T14:02:09.506Z,28.20
2017-10-15T14:04:37.131Z,28.20
2017-10-15T14:07:04.678Z,28.20
2017-10-15T14:09:32.251Z,27.90
2017-10-15T14:11:59.820Z,27.90
2017-10-15T14:14:27.411Z,28.00
2017-10-15T14:16:54.999Z,28.50
2017-10-15T14:19:23.339Z,28.30
2017-10-15T14:21:50.921Z,28.30
2017-10-15T14:24:18.481Z,28.40
2017-10-15T14:26:47.476Z,28.90
2017-10-15T14:29:16.535Z,28.40
2017-10-15T14:31:44.113Z,28.40
2017-10-15T14:34:11.657Z,28.30
2017-10-15T14:36:39.240Z,28.20
2017-10-15T14:39:06.800Z,28.10
2017-10-15T14:41:34.384Z,27.50
2017-10-15T14:44:02.714Z,26.90
2017-10-15T14:46:30.292Z,26.90
2017-10-15T14:48:57.871Z,26.70
2017-10-15T14:51:25.422Z,26.80
2017-10-15T14:53:52.972Z,26.50
2017-10-15T14:56:20.550Z,26.10
2017-10-15T14:58:48.138Z,26.00
2017-10-15T15:01:16.484Z,25.70
2017-10-15T15:03:44.059Z,25.70
2017-10-15T15:06:11.642Z,25.50
2017-10-15T15:08:40.008Z,25.20
2017-10-15T15:11:08.339Z,25.10
2017-10-15T15:13:35.920Z,25.10
2017-10-15T15:16:03.458Z,24.80
2017-10-15T15:18:31.068Z,24.40
2017-10-15T15:20:59.422Z,24.30
2017-10-15T15:23:26.969Z,24.30
2017-10-15T15:25:54.521Z,24.20
2017-10-15T15:28:22.075Z,24.00
2017-10-15T15:30:49.673Z,23.70
2017-10-15T15:33:17.214Z,23.60
2017-10-15T15:35:44.828Z,23.40
2017-10-15T15:38:12.373Z,23.20
2017-10-15T15:40:40.023Z,23.00
2017-10-15T15:43:08.362Z,22.70
2017-10-15T15:45:35.933Z,22.70
2017-10-15T15:48:03.524Z,22.50
2017-10-15T15:50:31.884Z,22.30
2017-10-15T15:52:59.463Z,22.20
2017-10-15T15:55:27.805Z,22.00
2017-10-15T15:57:55.423Z,21.90
2017-10-15T16:00:22.981Z,21.90
2017-10-15T16:02:50.580Z,21.70
2017-10-15T16:05:18.162Z,21.60
2017-10-15T16:07:45.754Z,21.50
2017-10-15T16:10:13.319Z,21.30
2017-10-15T16:12:41.706Z,21.00
2017-10-15T16:15:09.249Z,21.00
2017-10-15T16:17:37.608Z,20.70
2017-10-15T16:20:05.165Z,20.70
2017-10-15T16:22:33.522Z,20.50
2017-10-15T16:25:01.070Z,20.40
2017-10-15T16:27:28.659Z,20.30
2017-10-15T16:29:56.224Z,20.20
2017-10-15T16:32:23.831Z,20.00
2017-10-15T16:34:51.392Z,19.90
2017-10-15T16:37:18.968Z,19.70
2017-10-15T16:39:46.546Z,19.60
2017-10-15T16:42:14.121Z,19.50
2017-10-15T16:44:41.676Z,19.40
2017-10-15T16:47:09.246Z,19.30
2017-10-15T16:49:36.835Z,19.10
2017-10-15T16:52:04.441Z,18.90
2017-10-15T16:54:32.051Z,18.90
2017-10-15T16:57:00.379Z,18.60
2017-10-15T16:59:27.972Z,18.60
2017-10-15T17:01:55.575Z,18.50
2017-10-15T17:04:23.162Z,18.50
2017-10-15T17:06:50.763Z,18.30
2017-10-15T17:09:19.167Z,18.20
2017-10-15T17:11:46.749Z,18.20
2017-10-15T17:14:14.286Z,18.10
2017-10-15T17:16:41.842Z,18.00
2017-10-15T17:19:09.410Z,18.00
2017-10-15T17:21:37.008Z,17.90
2017-10-15T17:24:04.575Z,17.70
2017-10-15T17:26:32.134Z,17.60
2017-10-15T17:28:59.711Z,17.50
2017-10-15T17:31:27.251Z,17.40
2017-10-15T17:33:54.832Z,17.40
2017-10-15T17:36:22.469Z,17.30
2017-10-15T17:38:50.101Z,17.20
2017-10-15T17:41:17.680Z,17.10
2017-10-15T17:43:45.268Z,17.10
2017-10-15T17:46:12.837Z,17.10
2017-10-15T17:48:40.422Z,17.00
2017-10-15T17:51:08.767Z,16.80
2017-10-15T17:53:36.358Z,16.70
2017-10-15T17:56:04.695Z,16.60
2017-10-15T17:58:32.330Z,16.60
2017-10-15T18:00:59.916Z,16.60
2017-10-15T18:03:27.598Z,16.50
2017-10-15T18:05:55.286Z,16.40
2017-10-15T18:08:23.722Z,16.20
2017-10-15T18:10:51.499Z,16.20
2017-10-15T18:13:19.192Z,16.20
2017-10-15T18:15:47.615Z,16.00
2017-10-15T18:18:15.297Z,16.00
2017-10-15T18:20:42.980Z,15.90
2017-10-15T18:23:11.346Z,15.80
2017-10-15T18:25:38.923Z,15.80
2017-10-15T18:28:07.302Z,15.70
2017-10-15T18:30:34.918Z,15.70
2017-10-15T18:33:02.599Z,15.70
2017-10-15T18:35:30.178Z,15.60
2017-10-15T18:37:57.823Z,15.50
2017-10-15T18:40:25.489Z,15.50
2017-10-15T18:42:53.157Z,15.50
2017-10-15T18:45:20.868Z,15.40
2017-10-15T18:47:48.529Z,15.40
2017-10-15T18:50:16.406Z,15.30
2017-10-15T18:52:44.278Z,15.40
2017-10-15T18:55:12.155Z,15.30
2017-10-15T18:57:40.811Z,15.20
2017-10-15T19:00:08.741Z,15.10
2017-10-15T19:02:36.596Z,15.00
2017-10-15T19:05:04.496Z,15.00
2017-10-15T19:07:32.389Z,15.00
2017-10-15T19:10:00.292Z,14.90
2017-10-15T19:12:28.927Z,14.80
2017-10-15T19:14:56.818Z,14.80
2017-10-15T19:17:24.697Z,14.70
2017-10-15T19:19:52.583Z,14.70
2017-10-15T19:22:20.434Z,14.60
2017-10-15T19:24:48.317Z,14.60
2017-10-15T19:27:16.952Z,14.50
2017-10-15T19:29:44.807Z,14.40
2017-10-15T19:32:12.732Z,14.40
2017-10-15T19:34:41.365Z,14.30
2017-10-15T19:37:09.268Z,14.30
2017-10-15T19:39:37.157Z,14.30
2017-10-15T19:42:05.837Z,14.30
2017-10-15T19:44:34.492Z,14.10
2017-10-15T19:47:02.409Z,14.10
2017-10-15T19:49:30.363Z,14.10
2017-10-15T19:51:58.990Z,14.10
2017-10-15T19:54:26.857Z,14.10
2017-10-15T19:56:55.478Z,14.00
2017-10-15T19:59:24.070Z,13.90
2017-10-15T20:01:51.740Z,13.90
2017-10-15T20:04:19.328Z,13.90
2017-10-15T20:06:46.911Z,13.80
2017-10-15T20:09:15.351Z,13.70
2017-10-15T20:11:42.922Z,13.70
2017-10-15T20:14:10.472Z,13.70
2017-10-15T20:16:38.064Z,13.60
2017-10-15T20:19:06.389Z,13.50
2017-10-15T20:21:33.953Z,13.50
2017-10-15T20:24:01.544Z,13.50
2017-10-15T20:26:29.129Z,13.50
2017-10-15T20:28:57.460Z,13.50
2017-10-15T20:31:25.048Z,13.50
2017-10-15T20:33:52.640Z,13.50
2017-10-15T20:36:20.239Z,13.40
2017-10-15T20:38:47.796Z,13.30
2017-10-15T20:41:15.345Z,13.30
2017-10-15T20:43:42.929Z,13.20
2017-10-15T20:46:12.144Z,13.20
2017-10-15T20:48:40.498Z,13.20
2017-10-15T20:51:08.086Z,13.10
2017-10-15T20:53:35.645Z,13.10
2017-10-15T20:56:03.269Z,13.00
2017-10-15T20:58:30.838Z,13.00
2017-10-15T21:00:58.453Z,13.00
2017-10-15T21:03:26.801Z,12.90
2017-10-15T21:05:54.412Z,12.90
2017-10-15T21:08:21.972Z,12.90
2017-10-15T21:10:49.533Z,12.90
2017-10-15T21:13:17.114Z,12.90
2017-10-15T21:15:44.692Z,12.90
2017-10-15T21:18:12.338Z,12.90
2017-10-15T21:20:39.894Z,12.80
2017-10-15T21:23:07.454Z,12.70
2017-10-15T21:25:35.038Z,12.80
2017-10-15T21:28:02.678Z,12.80
2017-10-15T21:30:30.251Z,12.80
2017-10-15T21:32:57.783Z,12.70
2017-10-15T21:35:25.370Z,12.70
2017-10-15T21:37:52.948Z,12.70
2017-10-15T21:40:20.498Z,12.70
2017-10-15T21:42:48.071Z,12.70
2017-10-15T21:45:15.655Z,12.60
2017-10-15T21:47:44.045Z,12.60
2017-10-15T21:50:11.647Z,12.60
2017-10-15T21:52:39.226Z,12.60
2017-10-15T21:55:06.794Z,12.60
2017-10-15T21:57:34.369Z,12.60
2017-10-15T22:00:02.722Z,12.50
2017-10-15T22:02:30.337Z,12.50
2017-10-15T22:04:57.925Z,12.50
2017-10-15T22:07:25.527Z,12.50
2017-10-15T22:09:53.190Z,12.50
2017-10-15T22:12:20.726Z,12.50
2017-10-15T22:14:48.323Z,12.40
2017-10-15T22:17:16.655Z,12.40
2017-10-15T22:19:44.216Z,12.30
2017-10-15T22:22:17.518Z,12.40
2017-10-15T22:24:45.090Z,12.40
2017-10-15T22:27:12.658Z,12.30
2017-10-15T22:29:40.253Z,12.30
2017-10-15T22:32:07.840Z,12.30
2017-10-15T22:34:35.428Z,12.20
2017-10-15T22:37:02.994Z,12.20
2017-10-15T22:39:30.569Z,12.20
2017-10-15T22:41:58.911Z,12.10
2017-10-15T22:44:34.872Z,12.10
2017-10-15T22:47:02.430Z,12.10
2017-10-15T22:49:30.002Z,12.10
2017-10-15T22:51:57.598Z,12.10
2017-10-15T22:54:25.191Z,12.00
2017-10-15T22:56:53.506Z,12.00
2017-10-15T22:59:21.069Z,12.00
2017-10-15T23:01:48.665Z,12.00
2017-10-15T23:04:16.234Z,12.00
2017-10-15T23:06:44.554Z,12.00
2017-10-15T23:09:12.146Z,11.90
2017-10-15T23:11:39.710Z,11.90
2017-10-15T23:14:07.282Z,11.90
2017-10-15T23:16:34.849Z,11.90
2017-10-15T23:19:03.160Z,11.90
2017-10-15T23:21:30.742Z,11.90
2017-10-15T23:23:58.284Z,11.90
2017-10-15T23:26:25.859Z,11.90
2017-10-15T23:28:53.408Z,11.90
2017-10-15T23:31:21.748Z,11.80
2017-10-15T23:33:50.091Z,11.80
2017-10-15T23:36:17.653Z,11.70
2017-10-15T23:38:45.240Z,11.80
2017-10-15T23:41:12.829Z,11.80
2017-10-15T23:43:40.402Z,11.70
2017-10-15T23:46:07.969Z,11.70
2017-10-15T23:48:35.562Z,11.70
2017-10-15T23:51:03.113Z,11.60
2017-10-15T23:53:30.693Z,11.60
2017-10-15T23:55:58.242Z,11.60
2017-10-15T23:58:25.805Z,11.60
